KSEE/SEE METAR and TAF weather

Enter ICAO airport designator
Station Type Date Time Source
KSEE METAR 2021/10/22 18:47 UTC NOAA

KSEE 221847Z 00000KT 10SM SKC 19/12 A3003


Station Type Date Time Source
KSEE Decoded METAR 2021/10/22 18:47 UTC NOAA

San Diego/El Cajon, Gillespie Field Airport, CA, United States (KSEE) 32-49-34N 116-58-20W
Oct 22, 2021 - 02:47 PM EDT / 2021.10.22 1847 UTC
Wind: Calm:0
Visibility: 10 mile(s):0
Sky conditions: clear
Temperature: 66 F (19 C)
Dew Point: 53 F (12 C)
Relative Humidity: 63%
Pressure (altimeter): 30.03 in. Hg (1016 hPa)
ob: KSEE 221847Z 00000KT 10SM SKC 19/12 A3003
cycle: 19

Station Type Date Time Source
KSEE TAF UTC NOAA

Error!

Example: see airport list